Time,TemperatureF,DewpointF,PressureIn,WindDirection,WindDirectionDegrees,WindSpeedMPH,WindSpeedGustMPH,Humidity,HourlyPrecipIn,Conditions,Clouds,dailyrainin,SoftwareType,DateUTC
2013-09-02 00:01:00,70.6,70.0,29.78,SSE,157,0.0,0.0,96,0.00,,,0.00,weatherlink.com 1.10,2013-09-02 04:01:00,
2013-09-02 00:16:00,70.4,69.0,29.77,SSE,157,0.0,0.0,96,0.00,,,0.00,weatherlink.com 1.10,2013-09-02 04:16:00,
2013-09-02 00:31:00,70.1,69.0,29.78,SSW,201,0.0,0.0,97,0.00,,,0.00,weatherlink.com 1.10,2013-09-02 04:31:00,
2013-09-02 00:46:00,70.0,69.0,29.77,SSW,201,0.0,0.0,97,0.00,,,0.00,weatherlink.com 1.10,2013-09-02 04:46:00,
2013-09-02 01:01:00,69.6,69.0,29.78,SSW,201,0.0,0.0,97,0.00,,,0.00,weatherlink.com 1.10,2013-09-02 05:01:00,
2013-09-02 01:16:00,69.4,69.0,29.78,SSW,201,0.0,0.0,97,0.00,,,0.00,weatherlink.com 1.10,2013-09-02 05:16:00,
2013-09-02 01:31:00,69.4,69.0,29.78,SSW,201,0.0,0.0,97,0.00,,,0.00,weatherlink.com 1.10,2013-09-02 05:31:00,
2013-09-02 01:46:00,69.5,69.0,29.77,SSW,201,0.0,0.0,97,0.00,,,0.00,weatherlink.com 1.10,2013-09-02 05:46:00,
2013-09-02 02:01:00,69.5,69.0,29.77,SSW,201,0.0,0.0,97,0.00,,,0.00,weatherlink.com 1.10,2013-09-02 06:01:00,
2013-09-02 02:16:00,69.4,69.0,29.77,SSW,201,0.0,0.0,97,0.00,,,0.00,weatherlink.com 1.10,2013-09-02 06:16:00,
2013-09-02 02:31:00,69.3,69.0,29.76,SSW,201,0.0,0.0,97,0.00,,,0.00,weatherlink.com 1.10,2013-09-02 06:31:00,
2013-09-02 02:46:00,69.1,69.0,29.77,SSW,201,0.0,0.0,98,0.00,,,0.00,weatherlink.com 1.10,2013-09-02 06:46:00,
2013-09-02 03:01:00,69.1,69.0,29.76,SSW,201,0.0,0.0,98,0.00,,,0.00,weatherlink.com 1.10,2013-09-02 07:01:00,
2013-09-02 03:16:00,69.2,68.0,29.76,SSW,201,0.0,0.0,97,0.00,,,0.00,weatherlink.com 1.10,2013-09-02 07:16:00,
2013-09-02 03:31:00,69.3,69.0,29.76,SSW,201,0.0,0.0,97,0.00,,,0.00,weatherlink.com 1.10,2013-09-02 07:31:00,
2013-09-02 03:46:00,69.1,69.0,29.76,SSW,201,0.0,0.0,98,0.00,,,0.00,weatherlink.com 1.10,2013-09-02 07:46:00,
2013-09-02 04:01:00,69.2,68.0,29.76,SSW,201,0.0,0.0,97,0.00,,,0.00,weatherlink.com 1.10,2013-09-02 08:01:00,
2013-09-02 04:16:00,69.2,68.0,29.76,SSW,201,0.0,0.0,97,0.00,,,0.00,weatherlink.com 1.10,2013-09-02 08:16:00,
2013-09-02 04:31:00,69.2,68.0,29.76,SSW,201,0.0,0.0,97,0.00,,,0.00,weatherlink.com 1.10,2013-09-02 08:31:00,
2013-09-02 04:46:00,69.2,68.0,29.77,SSW,201,0.0,0.0,97,0.00,,,0.00,weatherlink.com 1.10,2013-09-02 08:46:00,
2013-09-02 05:01:00,69.2,68.0,29.77,SSW,200,0.0,0.0,97,0.00,,,0.00,weatherlink.com 1.10,2013-09-02 09:01:00,
2013-09-02 05:16:00,69.1,69.0,29.77,SSW,200,0.0,0.0,98,0.00,,,0.00,weatherlink.com 1.10,2013-09-02 09:16:00,
2013-09-02 05:31:00,69.0,69.0,29.76,SSW,200,0.0,0.0,98,0.02,,,0.02,weatherlink.com 1.10,2013-09-02 09:31:00,
2013-09-02 05:46:00,68.8,68.0,29.76,SSW,200,0.0,0.0,98,0.02,,,0.02,weatherlink.com 1.10,2013-09-02 09:46:00,
2013-09-02 06:01:00,68.5,68.0,29.76,SSW,200,0.0,0.0,98,0.02,,,0.02,weatherlink.com 1.10,2013-09-02 10:01:00,
2013-09-02 06:16:00,68.4,68.0,29.76,SSW,200,0.0,0.0,99,0.02,,,0.02,weatherlink.com 1.10,2013-09-02 10:16:00,
2013-09-02 06:31:00,68.3,68.0,29.77,SSW,200,0.0,0.0,99,0.00,,,0.02,weatherlink.com 1.10,2013-09-02 10:31:00,
2013-09-02 06:46:00,68.1,68.0,29.77,SSW,200,0.0,0.0,98,0.00,,,0.02,weatherlink.com 1.10,2013-09-02 10:46:00,
2013-09-02 07:01:00,67.9,68.0,29.77,SSW,200,0.0,0.0,99,0.00,,,0.02,weatherlink.com 1.10,2013-09-02 11:01:00,
2013-09-02 07:16:00,67.7,67.0,29.78,SSW,200,0.0,0.0,99,0.00,,,0.02,weatherlink.com 1.10,2013-09-02 11:16:00,
2013-09-02 07:31:00,67.7,67.0,29.78,SSW,200,0.0,0.0,99,0.00,,,0.02,weatherlink.com 1.10,2013-09-02 11:31:00,
2013-09-02 07:46:00,67.8,68.0,29.78,SSW,200,0.0,0.0,99,0.00,,,0.02,weatherlink.com 1.10,2013-09-02 11:46:00,
2013-09-02 08:01:00,68.1,68.0,29.78,SSW,200,0.0,0.0,99,0.00,,,0.02,weatherlink.com 1.10,2013-09-02 12:01:00,
2013-09-02 08:16:00,68.3,68.0,29.78,South,183,0.0,0.0,99,0.00,,,0.02,weatherlink.com 1.10,2013-09-02 12:16:00,
2013-09-02 08:32:00,68.6,68.0,29.79,South,180,0.0,0.0,99,0.00,,,0.02,weatherlink.com 1.10,2013-09-02 12:32:00,
2013-09-02 08:47:00,69.1,69.0,29.79,SSW,205,0.0,0.0,99,0.00,,,0.02,weatherlink.com 1.10,2013-09-02 12:47:00,
2013-09-02 09:02:00,69.8,69.0,29.79,SW,236,0.0,0.0,98,0.00,,,0.02,weatherlink.com 1.10,2013-09-02 13:02:00,
2013-09-02 09:17:00,70.7,70.0,29.79,South,184,0.0,0.0,96,0.00,,,0.02,weatherlink.com 1.10,2013-09-02 13:17:00,
2013-09-02 09:32:00,71.5,71.0,29.79,South,184,0.0,0.0,97,0.00,,,0.02,weatherlink.com 1.10,2013-09-02 13:32:00,
2013-09-02 09:47:00,72.4,71.0,29.79,South,184,0.0,0.0,95,0.00,,,0.02,weatherlink.com 1.10,2013-09-02 13:47:00,
2013-09-02 10:02:00,73.9,72.0,29.79,SW,216,0.0,0.0,92,0.00,,,0.02,weatherlink.com 1.10,2013-09-02 14:02:00,
2013-09-02 10:17:00,74.3,72.0,29.79,SSW,213,0.0,0.0,91,0.00,,,0.02,weatherlink.com 1.10,2013-09-02 14:17:00,
2013-09-02 10:32:00,76.2,71.0,29.79,SSW,204,0.0,1.0,85,0.00,,,0.02,weatherlink.com 1.10,2013-09-02 14:32:00,
2013-09-02 10:47:00,77.8,72.0,29.79,SSE,152,0.0,0.0,83,0.00,,,0.02,weatherlink.com 1.10,2013-09-02 14:47:00,
2013-09-02 11:02:00,78.5,70.0,29.79,ESE,123,0.0,0.0,75,0.00,,,0.02,weatherlink.com 1.10,2013-09-02 15:02:00,
2013-09-02 11:17:00,79.0,70.0,29.79,ESE,107,2.0,4.0,74,0.00,,,0.02,weatherlink.com 1.10,2013-09-02 15:17:00,
2013-09-02 11:32:00,80.0,70.0,29.79,SSE,149,2.0,3.0,72,0.00,,,0.02,weatherlink.com 1.10,2013-09-02 15:32:00,
2013-09-02 11:47:00,79.6,70.0,29.79,ENE,74,1.0,2.0,73,0.00,,,0.02,weatherlink.com 1.10,2013-09-02 15:47:00,
2013-09-02 12:02:00,80.8,71.0,29.78,ENE,75,3.0,4.0,72,0.00,,,0.02,weatherlink.com 1.10,2013-09-02 16:02:00,
2013-09-02 12:17:00,79.3,71.0,29.78,ENE,74,2.0,2.0,75,0.00,,,0.02,weatherlink.com 1.10,2013-09-02 16:17:00,
2013-09-02 12:32:00,81.7,70.0,29.78,SSW,208,3.0,4.0,68,0.00,,,0.02,weatherlink.com 1.10,2013-09-02 16:32:00,
2013-09-02 12:47:00,82.0,70.0,29.77,East,85,2.0,6.0,67,0.00,,,0.02,weatherlink.com 1.10,2013-09-02 16:47:00,
2013-09-02 13:02:00,82.0,70.0,29.77,East,90,1.0,5.0,67,0.00,,,0.02,weatherlink.com 1.10,2013-09-02 17:02:00,
2013-09-02 13:17:00,83.6,72.0,29.77,East,101,2.0,5.0,68,0.00,,,0.02,weatherlink.com 1.10,2013-09-02 17:17:00,
2013-09-02 13:32:00,84.4,71.0,29.77,ENE,70,2.0,4.0,64,0.00,,,0.02,weatherlink.com 1.10,2013-09-02 17:32:00,
2013-09-02 13:47:00,83.1,68.0,29.76,ESE,103,3.0,5.0,61,0.00,,,0.02,weatherlink.com 1.10,2013-09-02 17:47:00,
2013-09-02 14:02:00,83.4,71.0,29.76,SE,143,1.0,3.0,66,0.00,,,0.02,weatherlink.com 1.10,2013-09-02 18:02:00,
2013-09-02 14:17:00,85.2,70.0,29.75,ESE,106,3.0,5.0,61,0.00,,,0.02,weatherlink.com 1.10,2013-09-02 18:17:00,
2013-09-02 14:32:00,85.2,67.0,29.75,South,173,2.0,7.0,55,0.01,,,0.03,weatherlink.com 1.10,2013-09-02 18:32:00,
2013-09-02 14:47:00,85.5,69.0,29.73,SE,124,0.0,3.0,58,0.01,,,0.03,weatherlink.com 1.10,2013-09-02 18:47:00,
2013-09-02 15:03:00,86.4,71.0,29.73,ENE,64,1.0,3.0,61,0.01,,,0.03,weatherlink.com 1.10,2013-09-02 19:03:00,
2013-09-02 15:18:00,86.0,69.0,29.72,NE,55,1.0,4.0,57,0.01,,,0.03,weatherlink.com 1.10,2013-09-02 19:18:00,
2013-09-02 15:33:00,86.2,69.0,29.72,SE,132,3.0,6.0,56,0.00,,,0.03,weatherlink.com 1.10,2013-09-02 19:33:00,
2013-09-02 15:48:00,86.0,69.0,29.72,NE,51,1.0,5.0,57,0.00,,,0.03,weatherlink.com 1.10,2013-09-02 19:48:00,
2013-09-02 16:03:00,82.5,71.0,29.72,NE,49,0.0,2.0,69,0.00,,,0.03,weatherlink.com 1.10,2013-09-02 20:03:00,
2013-09-02 16:18:00,83.4,74.0,29.71,East,95,1.0,3.0,72,0.00,,,0.03,weatherlink.com 1.10,2013-09-02 20:18:00,
2013-09-02 16:33:00,82.3,74.0,29.71,SE,129,0.0,2.0,76,0.00,,,0.03,weatherlink.com 1.10,2013-09-02 20:33:00,
2013-09-02 16:48:00,81.3,73.0,29.71,SE,129,0.0,1.0,77,0.00,,,0.03,weatherlink.com 1.10,2013-09-02 20:48:00,
2013-09-02 17:03:00,81.8,74.0,29.71,SE,129,0.0,2.0,77,0.00,,,0.03,weatherlink.com 1.10,2013-09-02 21:03:00,
2013-09-02 17:18:00,81.8,74.0,29.70,SE,129,1.0,2.0,76,0.00,,,0.03,weatherlink.com 1.10,2013-09-02 21:18:00,
2013-09-02 17:33:00,81.2,74.0,29.70,SE,129,0.0,1.0,79,0.00,,,0.03,weatherlink.com 1.10,2013-09-02 21:33:00,
2013-09-02 17:48:00,80.7,73.0,29.70,SE,129,0.0,1.0,76,0.00,,,0.03,weatherlink.com 1.10,2013-09-02 21:48:00,
2013-09-02 18:03:00,79.5,74.0,29.70,SE,129,0.0,1.0,84,0.00,,,0.03,weatherlink.com 1.10,2013-09-02 22:03:00,
2013-09-02 18:18:00,78.9,74.0,29.70,SE,129,0.0,2.0,85,0.00,,,0.03,weatherlink.com 1.10,2013-09-02 22:18:00,
2013-09-02 18:33:00,78.1,73.0,29.71,SE,129,0.0,0.0,84,0.00,,,0.03,weatherlink.com 1.10,2013-09-02 22:33:00,
2013-09-02 18:48:00,78.0,74.0,29.72,SE,129,2.0,2.0,86,0.00,,,0.03,weatherlink.com 1.10,2013-09-02 22:48:00,
2013-09-02 19:03:00,77.5,73.0,29.72,ENE,75,0.0,1.0,86,0.00,,,0.03,weatherlink.com 1.10,2013-09-02 23:03:00,
2013-09-02 19:18:00,77.3,71.0,29.71,East,80,0.0,2.0,80,0.00,,,0.03,weatherlink.com 1.10,2013-09-02 23:18:00,
2013-09-02 19:33:00,75.5,72.0,29.70,East,80,0.0,1.0,88,0.00,,,0.03,weatherlink.com 1.10,2013-09-02 23:33:00,
2013-09-02 19:49:00,74.0,71.0,29.72,East,80,0.0,1.0,91,0.00,,,0.03,weatherlink.com 1.10,2013-09-02 23:49:00,
2013-09-02 20:03:00,73.0,70.0,29.72,East,80,0.0,1.0,91,0.00,,,0.03,weatherlink.com 1.10,2013-09-03 00:03:00,
2013-09-02 20:18:00,72.5,70.0,29.71,East,80,1.0,1.0,92,0.00,,,0.03,weatherlink.com 1.10,2013-09-03 00:18:00,
2013-09-02 20:33:00,71.9,70.0,29.72,SSE,153,0.0,3.0,93,0.00,,,0.03,weatherlink.com 1.10,2013-09-03 00:33:00,
2013-09-02 20:48:00,71.4,69.0,29.73,SSE,153,1.0,1.0,92,0.00,,,0.03,weatherlink.com 1.10,2013-09-03 00:48:00,
2013-09-02 21:03:00,70.6,69.0,29.75,SSE,153,0.0,1.0,94,0.00,,,0.03,weatherlink.com 1.10,2013-09-03 01:03:00,
2013-09-02 21:18:00,70.2,69.0,29.74,SSE,153,0.0,1.0,95,0.00,,,0.03,weatherlink.com 1.10,2013-09-03 01:18:00,
2013-09-02 21:33:00,70.0,68.0,29.74,SSE,153,0.0,1.0,94,0.00,,,0.03,weatherlink.com 1.10,2013-09-03 01:33:00,
2013-09-02 21:48:00,69.9,69.0,29.73,SSE,153,0.0,1.0,95,0.00,,,0.03,weatherlink.com 1.10,2013-09-03 01:48:00,
2013-09-02 22:03:00,69.6,68.0,29.74,SSE,153,0.0,1.0,95,0.00,,,0.03,weatherlink.com 1.10,2013-09-03 02:03:00,
2013-09-02 22:18:00,69.2,68.0,29.74,SSE,153,0.0,1.0,95,0.00,,,0.03,weatherlink.com 1.10,2013-09-03 02:18:00,
2013-09-02 22:33:00,69.4,68.0,29.75,SSE,153,1.0,1.0,95,0.00,,,0.03,weatherlink.com 1.10,2013-09-03 02:33:00,
2013-09-02 22:48:00,69.5,68.0,29.76,SSE,153,0.0,2.0,95,0.00,,,0.03,weatherlink.com 1.10,2013-09-03 02:48:00,
2013-09-02 23:03:00,69.9,68.0,29.76,SSE,151,1.0,2.0,93,0.00,,,0.03,weatherlink.com 1.10,2013-09-03 03:03:00,
2013-09-02 23:18:00,69.7,68.0,29.76,WSW,256,1.0,2.0,94,0.00,,,0.03,weatherlink.com 1.10,2013-09-03 03:18:00,
2013-09-02 23:33:00,69.3,68.0,29.77,East,90,1.0,3.0,96,0.00,,,0.03,weatherlink.com 1.10,2013-09-03 03:33:00,
2013-09-02 23:49:00,68.7,67.0,29.77,East,86,1.0,3.0,95,0.00,,,0.03,weatherlink.com 1.10,2013-09-03 03:49:00,